Search for airport 
image banner adimage banner adimage banner ad
image banner ad

CL95 - County Headquarters Bldg

Located in San Bernardino, United States

ICAO - CL95, IATA -

Data provided by Airmate  

General information

Coordinates: N34°6'11" W117°16'19"
Elevation is 1040 feet MSL.
Magnetic variation is 14° East
View others Airports in California

Operational data

Special qualification required
Current time UTC:
Current local time:
Weather at : KSBD - San Bernardino Intl ( 4 km )
METAR: KSBD 212252Z 29006KT 10SM CLR 40/01 A3003
TAF: KSBD 211720Z 2118/2218 VRB05KT P6SM SKC FM212000 26011KT P6SM SKC FM220400 VRB05KT P6SM SKC
View NOTAMs / SUP AIP / TFR affecting this airport [VIEW]
Communications frequencies: [VIEW]

Runways:

Airport contact information

Address: San Bernardino United States

Satellite view of CL95